Lafayette, TN

11:26 PM CDT on September 25, 2016 (GMT -0500)
KTNLAFAY2 | | Change Station

Elev 922 ft 36.57 °N, 86.06 °W | Updated 2 seconds ago

Clear
Clear
66.8 °F
Feels Like 66.8 °F
N
0.0
Wind Variable Wind from SSE
Gusts 0.9 mph

Today
High -- | Low -- °F
--% Chance of Precip.
Yesterday
High -- | Low -- °F
Precip. -- in
Pressure 30.04 in
Visibility 7.0 miles
Clouds Clear
Dew Point 62 °F
Humidity 86%
Rainfall 0.00 in
Snow Depth Not available.
6:34 AM 6:35 PM
Waning Crescent, 22% visible
METAR KGLW 260415Z AUTO 00000KT 7SM CLR 19/19 A3004 RMK AO2 T01860186
Pressure 30.04 in
Visibility 7.0 miles
Clouds Clear
Dew Point 62 °F
Humidity 86%
Rainfall 0.00 in
Snow Depth Not available.
6:34 AM 6:35 PM
Waning Crescent, 22% visible
METAR KGLW 260415Z AUTO 00000KT 7SM CLR 19/19 A3004 RMK AO2 T01860186

10-Day Weather Forecast

Almanac

Astronomy

Sep. 25, 2016 Rise Set
Actual Time
Civil Twilight
Nautical Twilight
Astronomical Twilight
Moon
Length of Visible Light
Length of Day
Tomorrow will be .
, % of the Moon is Illuminated

Today's Extremes

State Highs State Lows

Community

WunderPhotos

Upload Photos

1,941,841 photos uploaded!

WunderBlog® & News

Nearby

Air Quality

  Air Quality AQ Index Pollutant
Not available.

Snow Depth

Station Depth Elevation

Earthquake Activity

City Distance Mag. Time & Date
Minimum magnitude displayed is 2.5.

Coastal Water Temperatures

Place Temperature

Stations

Nearby Weather Stations

Station Location Temp. Windchill Dew Point Humidity Wind Precip. Elev Updated Type
                   

Watches & Warnings

There are currently no watches in effect.